Map

Track Data

SID SEASON NUMBER BASIN SUBBASIN NAME ISO_TIME NATURE LAT LON WMO_WIND WMO_PRES WMO_AGENCY TRACK_TYPE DIST2LAND LANDFALL IFLAG USA_AGENCY USA_ATCF_ID USA_LAT USA_LON USA_RECORD USA_STATUS USA_WIND USA_PRES USA_SSHS USA_R34_NE USA_R34_SE USA_R34_SW USA_R34_NW USA_R50_NE USA_R50_SE USA_R50_SW USA_R50_NW USA_R64_NE USA_R64_SE USA_R64_SW USA_R64_NW USA_POCI USA_ROCI USA_RMW USA_EYE TOKYO_LAT TOKYO_LON TOKYO_GRADE TOKYO_WIND TOKYO_PRES TOKYO_R50_DIR TOKYO_R50_LONG TOKYO_R50_SHORT TOKYO_R30_DIR TOKYO_R30_LONG TOKYO_R30_SHORT TOKYO_LAND CMA_LAT CMA_LON CMA_CAT CMA_WIND CMA_PRES HKO_LAT HKO_LON HKO_CAT HKO_WIND HKO_PRES NEWDELHI_LAT NEWDELHI_LON NEWDELHI_GRADE NEWDELHI_WIND NEWDELHI_PRES NEWDELHI_CI NEWDELHI_DP NEWDELHI_POCI REUNION_LAT REUNION_LON REUNION_TYPE REUNION_WIND REUNION_PRES REUNION_TNUM REUNION_CI REUNION_RMW REUNION_R34_NE REUNION_R34_SE REUNION_R34_SW REUNION_R34_NW REUNION_R50_NE REUNION_R50_SE REUNION_R50_SW REUNION_R50_NW REUNION_R64_NE REUNION_R64_SE REUNION_R64_SW REUNION_R64_NW BOM_LAT BOM_LON BOM_TYPE BOM_WIND BOM_PRES BOM_TNUM BOM_CI BOM_RMW BOM_R34_NE BOM_R34_SE BOM_R34_SW BOM_R34_NW BOM_R50_NE BOM_R50_SE BOM_R50_SW BOM_R50_NW BOM_R64_NE BOM_R64_SE BOM_R64_SW BOM_R64_NW BOM_ROCI BOM_POCI BOM_EYE BOM_POS_METHOD BOM_PRES_METHOD NADI_LAT NADI_LON NADI_CAT NADI_WIND NADI_PRES WELLINGTON_LAT WELLINGTON_LON WELLINGTON_WIND WELLINGTON_PRES DS824_LAT DS824_LON DS824_STAGE DS824_WIND DS824_PRES TD9636_LAT TD9636_LON TD9636_STAGE TD9636_WIND TD9636_PRES TD9635_LAT TD9635_LON TD9635_WIND TD9635_PRES TD9635_ROCI NEUMANN_LAT NEUMANN_LON NEUMANN_CLASS NEUMANN_WIND NEUMANN_PRES MLC_LAT MLC_LON MLC_CLASS MLC_WIND MLC_PRES USA_GUST BOM_GUST BOM_GUST_PER REUNION_GUST REUNION_GUST_PER USA_SEAHGT USA_SEARAD_NE USA_SEARAD_SE USA_SEARAD_SW USA_SEARAD_NW STORM_SPEED STORM_DIR
1912255N29276 1912 46 NA GM NOT_NAMED 1912-09-10 12:00:00 TS 29.0000 -84.0000 30 hurdat_atl main 80 80 O_____________ hurdat_atl AL041912 29.0000 -84.0000 TD 30 -1 3 270
1912255N29276 1912 46 NA GM NOT_NAMED 1912-09-10 15:00:00 TS 29.0001 -84.1625 main 95 95 P_____________ AL041912 29.0001 -84.1625 TD 32 -1 3 270
1912255N29276 1912 46 NA GM NOT_NAMED 1912-09-10 18:00:00 TS 29.0000 -84.3000 35 hurdat_atl main 97 91 O_____________ hurdat_atl AL041912 29.0000 -84.3000 TS 35 0 2 270
1912255N29276 1912 46 NA GM NOT_NAMED 1912-09-10 21:00:00 TS 29.0000 -84.4000 main 91 87 P_____________ AL041912 29.0000 -84.4000 TS 37 0 2 270
1912255N29276 1912 46 NA GM NOT_NAMED 1912-09-11 00:00:00 TS 29.0000 -84.5000 40 hurdat_atl main 87 83 O_____________ hurdat_atl AL041912 29.0000 -84.5000 TS 40 0 2 270
1912255N29276 1912 46 NA GM NOT_NAMED 1912-09-11 03:00:00 TS 29.0000 -84.6500 main 83 78 P_____________ AL041912 29.0000 -84.6500 TS 42 0 3 270
1912255N29276 1912 46 NA GM NOT_NAMED 1912-09-11 06:00:00 TS 29.0000 -84.8000 45 hurdat_atl main 78 78 O_____________ hurdat_atl AL041912 29.0000 -84.8000 TS 45 0 2 272
1912255N29276 1912 46 NA GM NOT_NAMED 1912-09-11 09:00:00 TS 29.0075 -84.9075 main 78 78 P_____________ AL041912 29.0075 -84.9075 TS 47 0 2 270
1912255N29276 1912 46 NA GM NOT_NAMED 1912-09-11 12:00:00 TS 29.0000 -85.0000 50 hurdat_atl main 78 78 O_____________ hurdat_atl AL041912 29.0000 -85.0000 TS 50 0 2 256
1912255N29276 1912 46 NA GM NOT_NAMED 1912-09-11 15:00:00 TS 28.9650 -85.1000 main 78 78 P_____________ AL041912 28.9650 -85.1000 TS 52 0 2 240
1912255N29276 1912 46 NA GM NOT_NAMED 1912-09-11 18:00:00 TS 28.9000 -85.2000 55 hurdat_atl main 89 89 O_____________ hurdat_atl AL041912 28.9000 -85.2000 TS 55 0 2 225
1912255N29276 1912 46 NA GM NOT_NAMED 1912-09-11 21:00:00 TS 28.8000 -85.2925 main 100 100 P_____________ AL041912 28.8000 -85.2925 TS 57 0 3 222
1912255N29276 1912 46 NA GM NOT_NAMED 1912-09-12 00:00:00 TS 28.7000 -85.4000 60 hurdat_atl main 111 111 O_____________ hurdat_atl AL041912 28.7000 -85.4000 TS 60 0 3 235
1912255N29276 1912 46 NA GM NOT_NAMED 1912-09-12 03:00:00 TS 28.6425 -85.5425 main 123 123 P_____________ AL041912 28.6425 -85.5425 TS 62 0 3 249
1912255N29276 1912 46 NA GM NOT_NAMED 1912-09-12 06:00:00 TS 28.6000 -85.7000 65 hurdat_atl main 126 126 O_____________ hurdat_atl AL041912 28.6000 -85.7000 HU 65 1 3 250
1912255N29276 1912 46 NA GM NOT_NAMED 1912-09-12 09:00:00 TS 28.5425 -85.8500 main 142 142 P_____________ AL041912 28.5425 -85.8500 HU 67 1 3 249
1912255N29276 1912 46 NA GM NOT_NAMED 1912-09-12 12:00:00 TS 28.5000 -86.0000 70 hurdat_atl main 146 146 O_____________ hurdat_atl AL041912 28.5000 -86.0000 HU 70 1 3 257
1912255N29276 1912 46 NA GM NOT_NAMED 1912-09-12 15:00:00 TS 28.4850 -86.1425 main 150 150 P_____________ AL041912 28.4850 -86.1425 HU 72 1 3 270
1912255N29276 1912 46 NA GM NOT_NAMED 1912-09-12 18:00:00 TS 28.5000 -86.3000 75 hurdat_atl main 159 159 O_____________ hurdat_atl AL041912 28.5000 -86.3000 HU 75 1 3 279
1912255N29276 1912 46 NA GM NOT_NAMED 1912-09-12 21:00:00 TS 28.5350 -86.4925 main 171 169 P_____________ AL041912 28.5350 -86.4925 HU 77 1 4 286
1912255N29276 1912 46 NA GM NOT_NAMED 1912-09-13 00:00:00 TS 28.6000 -86.7000 80 hurdat_atl main 175 175 O_____________ hurdat_atl AL041912 28.6000 -86.7000 HU 80 1 4 294
1912255N29276 1912 46 NA GM NOT_NAMED 1912-09-13 03:00:00 TS 28.6925 -86.9000 main 180 167 P_____________ AL041912 28.6925 -86.9000 HU 80 1 4 300
1912255N29276 1912 46 NA GM NOT_NAMED 1912-09-13 06:00:00 TS 28.8000 -87.1000 80 hurdat_atl main 167 156 O_____________ hurdat_atl AL041912 28.8000 -87.1000 HU 80 1 4 299
1912255N29276 1912 46 NA GM NOT_NAMED 1912-09-13 09:00:00 TS 28.8925 -87.3075 main 156 142 P_____________ AL041912 28.8925 -87.3075 HU 80 1 4 300
1912255N29276 1912 46 NA GM NOT_NAMED 1912-09-13 12:00:00 TS 29.0000 -87.5000 80 hurdat_atl main 142 128 O_____________ hurdat_atl AL041912 29.0000 -87.5000 HU 80 1 4 308
1912255N29276 1912 46 NA GM NOT_NAMED 1912-09-13 15:00:00 TS 29.1350 -87.6576 main 126 102 P_____________ AL041912 29.1350 -87.6576 HU 77 1 4 319
1912255N29276 1912 46 NA GM NOT_NAMED 1912-09-13 18:00:00 TS 29.3000 -87.8000 75 hurdat_atl main 102 78 O_____________ hurdat_atl AL041912 29.3000 -87.8000 HU 75 1 4 324
1912255N29276 1912 46 NA GM NOT_NAMED 1912-09-13 21:00:00 TS 29.4925 -87.9575 main 78 56 P_____________ AL041912 29.4925 -87.9575 HU 72 1 5 327
1912255N29276 1912 46 NA GM NOT_NAMED 1912-09-14 00:00:00 TS 29.7000 -88.1000 70 hurdat_atl main 56 38 O_____________ hurdat_atl AL041912 29.7000 -88.1000 HU 70 1 4 332
1912255N29276 1912 46 NA GM NOT_NAMED 1912-09-14 03:00:00 TS 29.8767 -88.1950 main 38 29 P_____________ AL041912 29.8767 -88.1950 HU 67 1 4 337
1912255N29276 1912 46 NA GM NOT_NAMED 1912-09-14 06:00:00 TS 30.1000 -88.3000 65 hurdat_atl main 29 9 O_____________ hurdat_atl AL041912 30.1000 -88.3000 HU 65 1 6 338
1912255N29276 1912 46 NA GM NOT_NAMED 1912-09-14 08:00:00 TS 30.3000 -88.4000 65 hurdat_atl main 9 0 O_____________ hurdat_atl AL041912 30.3000 -88.4000 L HU 65 1 7 339
1912255N29276 1912 46 NA NA NOT_NAMED 1912-09-14 09:00:00 TS 30.4105 -88.4377 main 0 0 P_____________ AL041912 30.4105 -88.4377 HU 61 0 8 350
1912255N29276 1912 46 NA NA NOT_NAMED 1912-09-14 12:00:00 TS 30.8000 -88.5000 50 hurdat_atl main 0 0 O_____________ hurdat_atl AL041912 30.8000 -88.5000 TS 50 0 9 356
1912255N29276 1912 46 NA NA NOT_NAMED 1912-09-14 15:00:00 TS 31.2630 -88.5138 main 0 0 P_____________ AL041912 31.2630 -88.5138 TS 45 0 10 1
1912255N29276 1912 46 NA NA NOT_NAMED 1912-09-14 18:00:00 TS 31.8000 -88.5000 40 hurdat_atl main 0 0 O_____________ hurdat_atl AL041912 31.8000 -88.5000 TS 40 0 11 1
1912255N29276 1912 46 NA NA NOT_NAMED 1912-09-14 21:00:00 TS 32.3250 -88.5000 main 0 0 P_____________ AL041912 32.3250 -88.5000 TS 37 0 12 1
1912255N29276 1912 46 NA NA NOT_NAMED 1912-09-15 00:00:00 TS 33.0000 -88.5000 35 hurdat_atl main 0 0 O_____________ hurdat_atl AL041912 33.0000 -88.5000 TS 35 0 16 0
1912255N29276 1912 46 NA NA NOT_NAMED 1912-09-15 03:00:00 TS 33.9250 -88.5000 main 0 0 P_____________ AL041912 33.9250 -88.5000 TS 32 -1 20 0
1912255N29276 1912 46 NA NA NOT_NAMED 1912-09-15 06:00:00 TS 35.0000 -88.5000 30 hurdat_atl main 0 O_____________ hurdat_atl AL041912 35.0000 -88.5000 TD 30 -1 22 0

About IBTrACS Database

This database is a web-friendly format of International Best Track Archive for Climate Stewardship (IBTrACS), a global best track data archive curated by NOAA dating back to 1842.

Updated: 2021-12-03